WXM80 ListenWXM80 Stop

You find our weather info also at:

UK Metoffice

WeatherCloud

Weather Underground

Northeastern Weather Network

AWEKAS

Citizen Weather Observer Program (CWOP)

HAMweather, WeatherForYou, PWS Weather


Weather Underground History page Text

Daily Summary for November 5, 2016 Units:  English    Metric   Both
« Previous Day
Next Day »
Daily Weekly Monthly Yearly Custom
  High: Low: Average:
Temperature: 61.8 °F 42.3 °F 51.6 °F
Dew Point: 47.3 °F 32.2 °F 41.3 °F
Humidity: 86 % 52 % 68 %
Wind Speed: 7.4 mph 0.0 mph 2.2 mph
Wind Gust: 14.0 mph - -
Wind:- - West
Pressure: 30.20 in 30.08 in -
Precipitation: 0.00 in    
Historical Graphs
 
 
Tabular Data for November 5, 2016
Time Temperature Dew Point Pressure Wind Wind Speed Wind Gust Humidity Rainfall Rate (Hourly)
00:00 49.3 °F 33.3 °F 30.18 in NNW 2.6 mph 5.8 mph 54 % 0.00 in
00:05 49.3 °F 33.3 °F 30.18 in NW 2.0 mph 4.6 mph 54 % 0.00 in
00:10 49.2 °F 33.7 °F 30.18 in NW 2.7 mph 6.9 mph 55 % 0.00 in
00:15 49.2 °F 32.8 °F 30.18 in WSW 2.6 mph 5.8 mph 53 % 0.00 in
00:20 49.1 °F 33.2 °F 30.18 in WSW 3.6 mph 6.9 mph 54 % 0.00 in
00:25 49.1 °F 32.2 °F 30.19 in NNW 5.3 mph 10.4 mph 52 % 0.00 in
00:30 49.1 °F 32.7 °F 30.19 in NE 2.7 mph 4.6 mph 53 % 0.00 in
00:35 49.0 °F 32.6 °F 30.18 in WNW 2.6 mph 6.9 mph 53 % 0.00 in
00:40 49.0 °F 33.1 °F 30.18 in West 3.9 mph 8.1 mph 54 % 0.00 in
00:45 49.0 °F 33.9 °F 30.18 in WNW 5.0 mph 11.0 mph 56 % 0.00 in
00:50 48.9 °F 33.9 °F 30.18 in NW 6.0 mph 10.0 mph 56 % 0.00 in
00:55 48.8 °F 33.3 °F 30.18 in NW 5.0 mph 14.0 mph 55 % 0.00 in
01:00 48.8 °F 34.7 °F 30.18 in North 3.4 mph 8.1 mph 58 % 0.00 in
01:05 48.8 °F 33.8 °F 30.18 in West 3.3 mph 8.1 mph 56 % 0.00 in
01:10 48.7 °F 34.1 °F 30.18 in North 5.7 mph 11.5 mph 57 % 0.00 in
01:15 48.7 °F 34.1 °F 30.18 in NNW 3.0 mph 11.5 mph 57 % 0.00 in
01:21 48.6 °F 34.5 °F 30.18 in NNW 3.2 mph 8.1 mph 58 % 0.00 in
01:26 48.5 °F 33.9 °F 30.18 in NW 2.6 mph 9.2 mph 57 % 0.00 in
01:31 48.3 °F 34.6 °F 30.18 in NNE 4.8 mph 9.2 mph 59 % 0.00 in
01:36 48.1 °F 34.9 °F 30.18 in NNW 2.4 mph 5.0 mph 60 % 0.00 in
01:41 47.9 °F 35.1 °F 30.18 in NW 5.1 mph 10.4 mph 61 % 0.00 in
01:46 47.8 °F 35.0 °F 30.18 in West 3.3 mph 8.1 mph 61 % 0.00 in
01:51 47.8 °F 34.6 °F 30.19 in NW 2.3 mph 3.5 mph 60 % 0.00 in
01:56 47.6 °F 34.4 °F 30.19 in WNW 2.3 mph 8.1 mph 60 % 0.00 in
02:01 47.5 °F 34.7 °F 30.19 in NNW 3.6 mph 6.9 mph 61 % 0.00 in
02:06 47.4 °F 35.0 °F 30.20 in NW 1.1 mph 4.6 mph 62 % 0.00 in
02:17 47.2 °F 34.4 °F 30.19 in NNW 4.4 mph 8.0 mph 61 % 0.00 in
02:22 47.1 °F 34.3 °F 30.19 in NW 4.6 mph 8.1 mph 61 % 0.00 in
02:27 47.1 °F 34.7 °F 30.19 in WNW 2.9 mph 8.0 mph 62 % 0.00 in
02:32 47.0 °F 33.8 °F 30.20 in NW 2.3 mph 6.0 mph 60 % 0.00 in
02:37 46.9 °F 34.1 °F 30.19 in North 0.2 mph 9.2 mph 61 % 0.00 in
02:42 46.8 °F 34.5 °F 30.19 in NW 3.4 mph 6.0 mph 62 % 0.00 in
02:47 46.8 °F 33.6 °F 30.19 in NW 1.1 mph 5.8 mph 60 % 0.00 in
02:52 46.7 °F 34.0 °F 30.19 in WNW 2.9 mph 5.0 mph 61 % 0.00 in
02:57 46.6 °F 33.9 °F 30.19 in NW 2.6 mph 6.9 mph 61 % 0.00 in
03:03 46.6 °F 33.4 °F 30.19 in NNW 0.4 mph 3.5 mph 60 % 0.00 in
03:08 46.5 °F 33.8 °F 30.19 in NW 2.9 mph 5.8 mph 61 % 0.00 in
03:13 46.5 °F 33.8 °F 30.19 in WNW 3.7 mph 6.9 mph 61 % 0.00 in
03:18 46.4 °F 33.7 °F 30.19 in WNW 0.1 mph 3.5 mph 61 % 0.00 in
03:23 46.3 °F 34.0 °F 30.19 in WNW 1.7 mph 3.0 mph 62 % 0.00 in
03:28 46.2 °F 34.3 °F 30.18 in WNW 1.3 mph 2.3 mph 63 % 0.00 in
03:33 46.1 °F 34.6 °F 30.18 in West 1.4 mph 3.5 mph 64 % 0.00 in
03:38 46.0 °F 34.5 °F 30.18 in NW 0.1 mph 2.3 mph 64 % 0.00 in
03:48 45.7 °F 34.2 °F 30.18 in WNW 1.7 mph 3.5 mph 64 % 0.00 in
03:54 45.6 °F 34.5 °F 30.18 in West 2.2 mph 3.5 mph 65 % 0.00 in
03:59 45.5 °F 34.4 °F 30.18 in NW 2.1 mph 3.5 mph 65 % 0.00 in
04:04 45.5 °F 34.4 °F 30.17 in West 0.5 mph 2.3 mph 65 % 0.00 in
04:09 45.4 °F 34.7 °F 30.17 in West 1.2 mph 3.5 mph 66 % 0.00 in
04:14 45.5 °F 34.8 °F 30.17 in NW 1.5 mph 5.0 mph 66 % 0.00 in
04:19 45.4 °F 35.1 °F 30.17 in West 0.9 mph 3.5 mph 67 % 0.00 in
04:24 45.4 °F 35.5 °F 30.17 in WSW 1.3 mph 3.5 mph 68 % 0.00 in
04:29 45.4 °F 35.5 °F 30.17 in West 1.3 mph 2.3 mph 68 % 0.00 in
04:34 45.3 °F 35.4 °F 30.17 in WSW 0.8 mph 3.5 mph 68 % 0.00 in
04:39 45.2 °F 35.3 °F 30.17 in WSW 1.1 mph 2.3 mph 68 % 0.00 in
04:45 45.2 °F 35.3 °F 30.17 in WSW 0.2 mph 1.2 mph 68 % 0.00 in
04:50 45.0 °F 35.1 °F 30.17 in Calm     68 % 0.00 in
04:55 44.9 °F 35.0 °F 30.17 in West 2.7 mph 5.8 mph 68 % 0.00 in
05:00 44.7 °F 35.1 °F 30.18 in WSW 2.9 mph 4.6 mph 69 % 0.00 in
05:05 44.5 °F 35.3 °F 30.17 in WSW 0.6 mph 2.3 mph 70 % 0.00 in
05:10 44.4 °F 35.2 °F 30.18 in Calm     70 % 0.00 in
05:15 44.2 °F 35.4 °F 30.18 in WSW 0.7 mph 1.2 mph 71 % 0.00 in
05:20 44.1 °F 35.6 °F 30.18 in Calm     72 % 0.00 in
05:25 43.9 °F 35.5 °F 30.18 in WSW 1.0 mph 1.2 mph 72 % 0.00 in
05:30 43.7 °F 35.6 °F 30.18 in Calm   2.0 mph 73 % 0.00 in
05:35 43.5 °F 35.8 °F 30.18 in WSW 1.0 mph 2.0 mph 74 % 0.00 in
05:40 43.2 °F 35.8 °F 30.18 in WSW 0.8 mph 2.3 mph 75 % 0.00 in
05:45 43.1 °F 35.7 °F 30.18 in WSW 1.0 mph 2.0 mph 75 % 0.00 in
05:50 42.8 °F 35.8 °F 30.18 in WSW 1.0 mph 3.0 mph 76 % 0.00 in
05:55 42.6 °F 35.6 °F 30.18 in WSW 1.0 mph 4.0 mph 76 % 0.00 in
06:00 42.4 °F 35.7 °F 30.18 in SW 0.8 mph 2.3 mph 77 % 0.00 in
06:05 42.3 °F 35.9 °F 30.18 in SW 3.2 mph 5.8 mph 78 % 0.00 in
06:11 42.3 °F 35.9 °F 30.18 in SW 0.8 mph 3.5 mph 78 % 0.00 in
06:16 42.6 °F 36.2 °F 30.18 in WNW 2.6 mph 5.8 mph 78 % 0.00 in
06:21 42.9 °F 36.2 °F 30.18 in West 2.6 mph 4.6 mph 77 % 0.00 in
06:26 43.3 °F 36.6 °F 30.19 in WSW 1.4 mph 8.1 mph 77 % 0.00 in
06:31 43.6 °F 36.5 °F 30.19 in West 3.7 mph 11.0 mph 76 % 0.00 in
06:36 44.1 °F 36.7 °F 30.18 in WSW 1.0 mph 3.5 mph 75 % 0.00 in
06:41 44.5 °F 36.7 °F 30.18 in WSW 3.2 mph 4.6 mph 74 % 0.00 in
06:46 44.8 °F 37.0 °F 30.18 in SW 2.0 mph 5.8 mph 74 % 0.00 in
06:51 45.1 °F 37.3 °F 30.18 in WSW 1.5 mph 9.2 mph 74 % 0.00 in
06:56 45.4 °F 37.6 °F 30.18 in WSW 4.8 mph 8.1 mph 74 % 0.00 in
07:02 45.6 °F 37.4 °F 30.19 in WSW 1.1 mph 3.5 mph 73 % 0.00 in
07:07 45.8 °F 37.6 °F 30.19 in WSW 2.5 mph 6.9 mph 73 % 0.00 in
07:12 45.9 °F 37.7 °F 30.19 in West 1.2 mph 2.3 mph 73 % 0.00 in
07:17 46.1 °F 37.9 °F 30.19 in West 1.9 mph 3.5 mph 73 % 0.00 in
07:22 46.2 °F 37.7 °F 30.19 in WSW 3.4 mph 3.5 mph 72 % 0.00 in
07:27 46.2 °F 37.7 °F 30.20 in West 2.5 mph 6.0 mph 72 % 0.00 in
07:32 46.3 °F 38.1 °F 30.19 in West 1.9 mph 4.0 mph 73 % 0.00 in
07:37 46.3 °F 37.8 °F 30.19 in SW 3.1 mph 3.5 mph 72 % 0.00 in
07:42 46.3 °F 38.1 °F 30.19 in WSW 3.9 mph 5.0 mph 73 % 0.00 in
07:47 46.4 °F 38.2 °F 30.18 in WNW 3.8 mph 5.8 mph 73 % 0.00 in
07:53 46.4 °F 38.2 °F 30.19 in WSW 3.0 mph 5.8 mph 73 % 0.00 in
07:58 46.4 °F 38.2 °F 30.18 in WSW 2.4 mph 4.6 mph 73 % 0.00 in
08:03 46.4 °F 38.2 °F 30.18 in SW 3.0 mph 5.0 mph 73 % 0.00 in
08:08 46.3 °F 38.5 °F 30.18 in WSW 1.4 mph 3.5 mph 74 % 0.00 in
08:13 46.2 °F 38.4 °F 30.18 in West 2.2 mph 4.6 mph 74 % 0.00 in
08:18 46.1 °F 38.3 °F 30.18 in WSW 2.3 mph 3.5 mph 74 % 0.00 in
08:23 46.1 °F 38.3 °F 30.18 in WSW 2.3 mph 3.5 mph 74 % 0.00 in
08:28 46.0 °F 38.2 °F 30.18 in WSW 1.8 mph 3.5 mph 74 % 0.00 in
08:33 45.9 °F 38.1 °F 30.19 in WSW 3.0 mph 3.5 mph 74 % 0.00 in
08:38 45.9 °F 38.1 °F 30.19 in SW 2.3 mph 4.6 mph 74 % 0.00 in
08:44 45.9 °F 38.1 °F 30.18 in SW 1.9 mph 3.5 mph 74 % 0.00 in
08:49 45.9 °F 38.4 °F 30.19 in SW 3.1 mph 3.5 mph 75 % 0.00 in
08:54 45.9 °F 38.4 °F 30.19 in Calm   1.2 mph 75 % 0.00 in
08:59 46.0 °F 38.9 °F 30.19 in SW 2.8 mph 3.5 mph 76 % 0.00 in
09:04 46.0 °F 38.9 °F 30.19 in SW 3.3 mph 4.0 mph 76 % 0.00 in
09:09 46.2 °F 39.1 °F 30.19 in SSW 1.5 mph 3.5 mph 76 % 0.00 in
09:14 46.4 °F 38.9 °F 30.18 in SW 1.0 mph 3.5 mph 75 % 0.00 in
09:19 46.7 °F 39.2 °F 30.19 in SW 4.6 mph 9.2 mph 75 % 0.00 in
09:24 46.9 °F 39.4 °F 30.19 in WSW 3.5 mph 3.5 mph 75 % 0.00 in
09:29 47.4 °F 39.9 °F 30.19 in WSW 3.6 mph 6.0 mph 75 % 0.00 in
09:34 48.0 °F 40.1 °F 30.19 in NW 7.4 mph 11.5 mph 74 % 0.00 in
09:40 48.7 °F 40.8 °F 30.19 in SW 2.8 mph 4.0 mph 74 % 0.00 in
09:45 49.4 °F 41.5 °F 30.19 in SW 3.1 mph 4.6 mph 74 % 0.00 in
09:50 49.9 °F 41.6 °F 30.19 in West 0.4 mph 1.2 mph 73 % 0.00 in
09:55 50.5 °F 41.8 °F 30.19 in SW 3.5 mph 5.0 mph 72 % 0.00 in
10:00 51.1 °F 42.4 °F 30.19 in SW 2.3 mph 4.6 mph 72 % 0.00 in
10:05 51.5 °F 42.8 °F 30.19 in SW 2.4 mph 3.5 mph 72 % 0.00 in
10:10 51.9 °F 42.8 °F 30.18 in WSW 5.5 mph 7.0 mph 71 % 0.00 in
10:15 52.3 °F 43.5 °F 30.18 in West 4.6 mph 6.9 mph 72 % 0.00 in
10:20 52.8 °F 42.9 °F 30.17 in SW 4.4 mph 9.2 mph 69 % 0.00 in
10:25 53.4 °F 43.1 °F 30.16 in WSW 6.0 mph 9.0 mph 68 % 0.00 in
10:30 54.0 °F 43.3 °F 30.16 in WNW 4.1 mph 8.1 mph 67 % 0.00 in
10:35 54.4 °F 43.3 °F 30.17 in WSW 5.0 mph 10.0 mph 66 % 0.00 in
10:40 54.9 °F 43.3 °F 30.17 in WSW 5.0 mph 9.0 mph 65 % 0.00 in
10:45 55.3 °F 43.3 °F 30.17 in NW 5.5 mph 8.1 mph 64 % 0.00 in
10:50 55.6 °F 43.2 °F 30.18 in WNW 3.0 mph 12.0 mph 63 % 0.00 in
10:55 56.0 °F 43.5 °F 30.18 in West 2.0 mph 9.0 mph 63 % 0.00 in
11:00 56.5 °F 43.6 °F 30.18 in NW 3.7 mph 6.9 mph 62 % 0.00 in
11:05 56.7 °F 43.8 °F 30.18 in West 3.9 mph 7.0 mph 62 % 0.00 in
11:11 57.0 °F 44.1 °F 30.18 in WNW 1.9 mph 4.6 mph 62 % 0.00 in
11:16 57.2 °F 43.4 °F 30.18 in WSW 4.7 mph 5.8 mph 60 % 0.00 in
11:21 57.4 °F 44.1 °F 30.18 in WNW 4.1 mph 6.9 mph 61 % 0.00 in
11:26 57.5 °F 44.6 °F 30.18 in WNW 1.6 mph 5.0 mph 62 % 0.00 in
11:31 57.7 °F 43.9 °F 30.18 in WSW 4.3 mph 10.4 mph 60 % 0.00 in
11:36 57.7 °F 43.9 °F 30.18 in WSW 4.9 mph 6.9 mph 60 % 0.00 in
11:41 57.7 °F 43.5 °F 30.18 in WSW 3.7 mph 10.4 mph 59 % 0.00 in
11:46 57.6 °F 44.2 °F 30.17 in West 2.9 mph 6.9 mph 61 % 0.00 in
11:51 57.6 °F 43.8 °F 30.17 in WNW 2.2 mph 4.6 mph 60 % 0.00 in
11:56 57.7 °F 43.9 °F 30.17 in WNW 2.6 mph 4.6 mph 60 % 0.00 in
12:02 57.7 °F 43.9 °F 30.17 in WNW 4.8 mph 6.9 mph 60 % 0.00 in
12:07 57.7 °F 44.3 °F 30.17 in WNW 4.7 mph 6.9 mph 61 % 0.00 in
12:12 57.6 °F 44.7 °F 30.17 in NNW 2.2 mph 4.6 mph 62 % 0.00 in
12:17 57.5 °F 44.6 °F 30.17 in SW 2.1 mph 3.5 mph 62 % 0.00 in
12:22 57.3 °F 44.4 °F 30.17 in WSW 5.2 mph 9.0 mph 62 % 0.00 in
12:27 57.2 °F 44.3 °F 30.16 in WNW 3.9 mph 7.0 mph 62 % 0.00 in
12:32 57.0 °F 44.5 °F 30.16 in West 3.7 mph 8.1 mph 63 % 0.00 in
12:37 56.9 °F 44.8 °F 30.16 in WSW 3.9 mph 6.9 mph 64 % 0.00 in
12:42 56.9 °F 45.3 °F 30.15 in West 0.5 mph 3.5 mph 65 % 0.00 in
12:47 57.0 °F 45.3 °F 30.15 in NW 4.0 mph 6.9 mph 65 % 0.00 in
12:53 57.2 °F 45.5 °F 30.15 in West 2.9 mph 9.0 mph 65 % 0.00 in
12:58 57.4 °F 44.9 °F 30.15 in West 4.1 mph 9.2 mph 63 % 0.00 in
13:03 57.6 °F 45.1 °F 30.14 in WSW 1.3 mph 3.5 mph 63 % 0.00 in
13:08 57.8 °F 45.3 °F 30.14 in NW 2.3 mph 6.0 mph 63 % 0.00 in
13:13 57.9 °F 45.0 °F 30.14 in West 5.1 mph 8.1 mph 62 % 0.00 in
13:18 57.8 °F 44.9 °F 30.14 in SW 4.1 mph 7.0 mph 62 % 0.00 in
13:23 57.9 °F 45.0 °F 30.13 in WNW 5.3 mph 6.9 mph 62 % 0.00 in
13:28 58.0 °F 45.5 °F 30.13 in NNW 2.0 mph 5.0 mph 63 % 0.00 in
13:33 58.0 °F 45.0 °F 30.12 in NW 5.5 mph 6.9 mph 62 % 0.00 in
13:38 58.1 °F 46.0 °F 30.12 in NW 0.9 mph 3.5 mph 64 % 0.00 in
13:44 58.3 °F 45.3 °F 30.12 in WNW 5.8 mph 8.1 mph 62 % 0.00 in
13:49 58.6 °F 45.2 °F 30.12 in WNW 2.0 mph 6.9 mph 61 % 0.00 in
13:54 58.9 °F 45.9 °F 30.11 in WNW 4.6 mph 8.1 mph 62 % 0.00 in
13:59 59.5 °F 46.5 °F 30.11 in WNW 4.4 mph 8.1 mph 62 % 0.00 in
14:04 60.0 °F 46.5 °F 30.10 in SW 2.9 mph 9.2 mph 61 % 0.00 in
14:09 60.5 °F 47.0 °F 30.10 in WNW 4.1 mph 4.1 mph 61 % 0.00 in
14:14 60.9 °F 46.5 °F 30.10 in West 2.8 mph 3.0 mph 59 % 0.00 in
14:19 61.3 °F 47.3 °F 30.10 in WNW 7.2 mph 7.2 mph 60 % 0.00 in
14:24 61.6 °F 47.1 °F 30.11 in SW 4.4 mph 6.0 mph 59 % 0.00 in
14:30 61.8 °F 46.9 °F 30.10 in West 5.6 mph 8.1 mph 58 % 0.00 in
14:35 61.8 °F 45.9 °F 30.10 in NW 5.5 mph 11.5 mph 56 % 0.00 in
14:40 61.7 °F 46.3 °F 30.10 in WNW 4.0 mph 5.8 mph 57 % 0.00 in
14:45 61.4 °F 46.0 °F 30.10 in WNW 4.2 mph 6.9 mph 57 % 0.00 in
14:50 61.2 °F 45.8 °F 30.10 in WSW 4.3 mph 9.2 mph 57 % 0.00 in
14:55 60.9 °F 45.6 °F 30.10 in West 4.5 mph 9.2 mph 57 % 0.00 in
15:00 60.7 °F 45.4 °F 30.10 in SSW 3.2 mph 8.1 mph 57 % 0.00 in
15:05 60.5 °F 46.1 °F 30.10 in SW 0.5 mph 4.0 mph 59 % 0.00 in
15:10 60.4 °F 45.5 °F 30.10 in SW 4.8 mph 8.1 mph 58 % 0.00 in
15:15 60.2 °F 45.4 °F 30.10 in West 5.0 mph 9.0 mph 58 % 0.00 in
15:20 60.0 °F 45.2 °F 30.11 in WNW 3.0 mph 4.6 mph 58 % 0.00 in
15:25 59.9 °F 45.5 °F 30.10 in West 3.0 mph 9.0 mph 59 % 0.00 in
15:30 59.8 °F 45.4 °F 30.11 in West 1.0 mph 5.0 mph 59 % 0.00 in
15:35 59.7 °F 45.3 °F 30.11 in SW 2.0 mph 6.9 mph 59 % 0.00 in
15:40 59.5 °F 45.6 °F 30.11 in WNW 3.0 mph 8.0 mph 60 % 0.00 in
15:45 59.4 °F 45.1 °F 30.12 in WNW 3.0 mph 10.0 mph 59 % 0.00 in
15:55 59.1 °F 45.7 °F 30.11 in WNW 2.0 mph 10.0 mph 61 % 0.00 in
16:00 59.0 °F 46.0 °F 30.11 in NW 4.2 mph 6.9 mph 62 % 0.00 in
16:05 58.9 °F 45.9 °F 30.11 in NW 5.0 mph 9.0 mph 62 % 0.00 in
16:10 58.7 °F 45.7 °F 30.11 in WNW 2.0 mph 7.0 mph 62 % 0.00 in
16:15 58.7 °F 46.1 °F 30.11 in WNW 5.0 mph 12.0 mph 63 % 0.00 in
16:20 58.7 °F 46.1 °F 30.11 in North 3.0 mph 9.2 mph 63 % 0.00 in
16:25 58.7 °F 45.7 °F 30.11 in NW 5.0 mph 10.0 mph 62 % 0.00 in
16:30 58.7 °F 46.1 °F 30.11 in NW 2.0 mph 8.0 mph 63 % 0.00 in
16:35 58.7 °F 46.1 °F 30.11 in WNW 3.5 mph 8.1 mph 63 % 0.00 in
16:40 58.6 °F 46.0 °F 30.11 in WNW 1.0 mph 9.0 mph 63 % 0.00 in
16:45 58.6 °F 46.5 °F 30.11 in NW 2.0 mph 6.0 mph 64 % 0.00 in
16:50 58.5 °F 46.4 °F 30.11 in WNW 2.3 mph 3.5 mph 64 % 0.00 in
16:55 58.5 °F 46.8 °F 30.11 in WNW 3.0 mph 8.0 mph 65 % 0.00 in
17:00 58.4 °F 45.4 °F 30.11 in West 5.3 mph 7.0 mph 62 % 0.00 in
17:05 58.4 °F 45.8 °F 30.11 in NW 0.5 mph 5.8 mph 63 % 0.00 in
17:10 58.3 °F 46.2 °F 30.11 in NW 3.1 mph 6.9 mph 64 % 0.00 in
17:15 58.2 °F 46.1 °F 30.11 in West 4.2 mph 6.0 mph 64 % 0.00 in
17:21 58.2 °F 45.7 °F 30.10 in NW 1.7 mph 3.5 mph 63 % 0.00 in
17:26 58.1 °F 45.6 °F 30.10 in WNW 2.9 mph 5.8 mph 63 % 0.00 in
17:31 58.1 °F 46.0 °F 30.10 in West 1.4 mph 3.5 mph 64 % 0.00 in
17:36 58.0 °F 45.9 °F 30.11 in WNW 1.1 mph 2.3 mph 64 % 0.00 in
17:41 58.0 °F 45.9 °F 30.11 in WNW 1.5 mph 2.3 mph 64 % 0.00 in
17:46 57.9 °F 45.8 °F 30.11 in WSW 2.0 mph 5.0 mph 64 % 0.00 in
17:51 57.8 °F 45.7 °F 30.11 in West 1.7 mph 3.5 mph 64 % 0.00 in
17:56 57.7 °F 45.6 °F 30.10 in West 0.9 mph 3.5 mph 64 % 0.00 in
18:01 57.7 °F 45.6 °F 30.11 in WNW 0.9 mph 3.0 mph 64 % 0.00 in
18:06 57.6 °F 45.5 °F 30.10 in West 1.1 mph 2.3 mph 64 % 0.00 in
18:12 57.5 °F 45.4 °F 30.10 in Calm   1.2 mph 64 % 0.00 in
18:17 57.5 °F 45.8 °F 30.11 in Calm     65 % 0.00 in
18:22 57.3 °F 45.6 °F 30.11 in Calm   1.2 mph 65 % 0.00 in
18:27 57.2 °F 45.9 °F 30.11 in West 0.1 mph 1.0 mph 66 % 0.00 in
18:32 57.1 °F 46.2 °F 30.11 in West 0.4 mph 2.0 mph 67 % 0.00 in
18:37 56.9 °F 46.4 °F 30.11 in West 0.2 mph 1.2 mph 68 % 0.00 in
18:42 56.8 °F 46.3 °F 30.11 in West 0.1 mph 1.2 mph 68 % 0.00 in
18:47 56.7 °F 46.6 °F 30.11 in Calm   1.2 mph 69 % 0.00 in
18:52 56.5 °F 46.4 °F 30.11 in Calm   1.2 mph 69 % 0.00 in
18:57 56.2 °F 46.2 °F 30.11 in Calm     69 % 0.00 in
19:02 56.0 °F 46.0 °F 30.11 in Calm   1.2 mph 69 % 0.00 in
19:07 55.8 °F 45.8 °F 30.11 in Calm   1.2 mph 69 % 0.00 in
19:13 55.6 °F 46.0 °F 30.11 in Calm     70 % 0.00 in
19:18 55.4 °F 46.2 °F 30.11 in West 0.2 mph 1.2 mph 71 % 0.00 in
19:23 55.1 °F 45.9 °F 30.11 in Calm     71 % 0.00 in
19:28 54.9 °F 45.7 °F 30.11 in West 0.2 mph 1.2 mph 71 % 0.00 in
19:33 54.6 °F 45.8 °F 30.11 in Calm   1.2 mph 72 % 0.00 in
19:38 54.3 °F 45.8 °F 30.11 in Calm   1.2 mph 73 % 0.00 in
19:43 54.0 °F 45.5 °F 30.11 in Calm   1.2 mph 73 % 0.00 in
19:48 53.8 °F 45.3 °F 30.11 in West 0.6 mph 1.2 mph 73 % 0.00 in
19:53 53.5 °F 45.4 °F 30.11 in Calm     74 % 0.00 in
20:04 53.0 °F 45.6 °F 30.11 in West 0.1 mph 1.2 mph 76 % 0.00 in
20:09 52.7 °F 45.0 °F 30.11 in Calm   1.2 mph 75 % 0.00 in
20:14 52.4 °F 45.1 °F 30.11 in West 0.1 mph 1.2 mph 76 % 0.00 in
20:19 52.2 °F 44.9 °F 30.11 in WSW 0.2 mph 1.2 mph 76 % 0.00 in
20:24 52.0 °F 45.0 °F 30.11 in Calm   1.0 mph 77 % 0.00 in
20:29 51.8 °F 44.8 °F 30.11 in WSW 0.4 mph 1.2 mph 77 % 0.00 in
20:34 51.6 °F 44.6 °F 30.11 in WSW 0.1 mph 1.2 mph 77 % 0.00 in
20:39 51.4 °F 44.4 °F 30.11 in WSW 0.1 mph 1.2 mph 77 % 0.00 in
20:44 51.2 °F 44.2 °F 30.11 in Calm     77 % 0.00 in
20:49 51.0 °F 44.0 °F 30.11 in Calm     77 % 0.00 in
20:55 50.8 °F 44.2 °F 30.11 in Calm     78 % 0.00 in
21:00 50.6 °F 44.0 °F 30.11 in Calm     78 % 0.00 in
21:05 50.4 °F 43.8 °F 30.10 in Calm     78 % 0.00 in
21:10 50.1 °F 44.2 °F 30.11 in Calm     80 % 0.00 in
21:15 49.9 °F 44.3 °F 30.11 in Calm     81 % 0.00 in
21:20 49.7 °F 44.1 °F 30.11 in WSW 0.2 mph 1.2 mph 81 % 0.00 in
21:25 49.5 °F 44.2 °F 30.11 in Calm   1.2 mph 82 % 0.00 in
21:30 49.4 °F 44.1 °F 30.11 in WSW 0.7 mph 3.5 mph 82 % 0.00 in
21:35 49.3 °F 44.4 °F 30.11 in Calm   2.0 mph 83 % 0.00 in
21:40 49.2 °F 44.3 °F 30.10 in WSW 1.3 mph 3.5 mph 83 % 0.00 in
21:45 49.2 °F 44.6 °F 30.11 in WSW 1.0 mph 3.0 mph 84 % 0.00 in
21:50 49.2 °F 44.6 °F 30.11 in WSW 1.0 mph 2.0 mph 84 % 0.00 in
21:55 49.3 °F 44.7 °F 30.11 in WSW 0.9 mph 2.3 mph 84 % 0.00 in
22:00 49.4 °F 44.8 °F 30.11 in WSW 1.2 mph 2.3 mph 84 % 0.00 in
22:05 49.4 °F 44.5 °F 30.11 in WSW 0.5 mph 2.3 mph 83 % 0.00 in
22:11 49.5 °F 44.6 °F 30.11 in WSW 0.5 mph 2.3 mph 83 % 0.00 in
22:16 49.5 °F 44.6 °F 30.11 in Calm     83 % 0.00 in
22:21 49.5 °F 44.6 °F 30.11 in WSW 0.1 mph 1.2 mph 83 % 0.00 in
22:26 49.5 °F 44.6 °F 30.11 in Calm   1.2 mph 83 % 0.00 in
22:31 49.4 °F 44.5 °F 30.11 in Calm     83 % 0.00 in
22:36 49.4 °F 44.5 °F 30.10 in Calm     83 % 0.00 in
22:41 49.3 °F 44.4 °F 30.11 in Calm     83 % 0.00 in
22:46 49.2 °F 44.3 °F 30.10 in Calm     83 % 0.00 in
22:51 49.1 °F 44.2 °F 30.10 in Calm     83 % 0.00 in
22:56 49.1 °F 44.2 °F 30.10 in Calm     83 % 0.00 in
23:01 49.0 °F 44.1 °F 30.10 in Calm     83 % 0.00 in
23:06 48.9 °F 44.0 °F 30.10 in Calm   1.2 mph 83 % 0.00 in
23:12 48.8 °F 44.2 °F 30.10 in WSW 0.5 mph 1.2 mph 84 % 0.00 in
23:17 48.7 °F 44.1 °F 30.10 in Calm   1.2 mph 84 % 0.00 in
23:22 48.6 °F 44.0 °F 30.10 in WSW 0.3 mph 1.2 mph 84 % 0.00 in
23:27 48.5 °F 44.2 °F 30.09 in WSW 0.1 mph 2.3 mph 85 % 0.00 in
23:32 48.5 °F 44.2 °F 30.09 in WSW 1.4 mph 2.0 mph 85 % 0.00 in
23:37 48.5 °F 44.2 °F 30.09 in SW 1.6 mph 3.5 mph 85 % 0.00 in
23:42 48.5 °F 44.2 °F 30.09 in SW 2.6 mph 3.5 mph 85 % 0.00 in
23:47 48.5 °F 44.5 °F 30.09 in WSW 1.8 mph 3.5 mph 86 % 0.00 in
23:52 48.6 °F 44.6 °F 30.08 in SW 0.7 mph 2.3 mph 86 % 0.00 in
23:57 48.7 °F 44.7 °F 30.08 in WSW 2.0 mph 3.5 mph 86 % 0.00 in
Crab Meadow Weather
Compliments of Weather Underground - 3 mb

Script developed by  Jim McMurry - jmcmurry@mwt.net Adapted for the template by  Wim van der Kuil - Leuven-Template.eu

Recycling: The average household throws away 13,000 separate pieces of paper each year. Most is packaging and junk mail.